Time;durP1;ratioP1;P1;durP2;ratioP2;P2;SDS_P1;SDS_P2;PMS_P1;PMS_P2;Temp;Humidity;BMP_temperature;BMP_pressure;BME280_temperature;BME280_humidity;BME280_pressure;Samples;Min_cycle;Max_cycle;Signal;HPM_P1;HPM_P2
2021/09/25 00:00:41;;;;;;;43.78;7.78;;;;;;;13.68;97.26;100002.72;5098983;28;20019;-78
2021/09/25 00:03:07;;;;;;;50.88;8.10;;;;;;;13.75;97.50;100003.41;5080898;28;20066;-79
2021/09/25 00:05:37;;;;;;;34.42;6.60;;;;;;;13.65;96.90;99978.84;5081595;28;20058;-78
2021/09/25 00:08:04;;;;;;;43.25;9.05;;;;;;;13.75;96.88;100008.81;5112864;28;20023;-79
2021/09/25 00:10:30;;;;;;;44.00;9.10;;;;;;;13.77;97.05;100015.59;5097275;28;20081;-78
2021/09/25 00:12:58;;;;;;;33.38;7.25;;;;;;;13.70;97.21;100020.31;5100298;28;20028;-80
2021/09/25 00:15:25;;;;;;;44.97;8.07;;;;;;;13.72;97.03;100018.22;5095585;28;20047;-79
2021/09/25 00:17:51;;;;;;;48.08;9.00;;;;;;;13.80;97.25;100017.00;5095451;28;20035;-79
2021/09/25 00:20:20;;;;;;;47.45;7.53;;;;;;;13.75;97.07;100025.03;5094242;28;20020;-79
2021/09/25 00:22:46;;;;;;;38.28;7.28;;;;;;;13.78;97.25;100021.84;5095500;28;20028;-79
2021/09/25 00:25:11;;;;;;;43.45;8.00;;;;;;;13.74;97.31;100029.63;5091582;28;20020;-79
2021/09/25 00:27:38;;;;;;;43.63;8.20;;;;;;;13.79;96.89;100037.81;5095252;28;20028;-79
2021/09/25 00:30:06;;;;;;;41.55;8.13;;;;;;;13.78;97.26;100048.88;5092171;28;20145;-79
2021/09/25 00:32:32;;;;;;;43.42;7.95;;;;;;;13.81;97.26;100075.44;5100922;28;20373;-79
2021/09/25 00:34:58;;;;;;;49.33;8.75;;;;;;;13.77;97.54;100082.38;5095283;28;20043;-79
2021/09/25 00:37:23;;;;;;;50.95;9.27;;;;;;;13.72;97.54;100071.47;5087988;28;20025;-80
2021/09/25 00:39:48;;;;;;;49.95;9.18;;;;;;;13.77;97.63;100072.38;5057995;28;20032;-79
2021/09/25 00:42:14;;;;;;;50.55;9.07;;;;;;;13.78;98.05;100032.66;5083709;28;20024;-79
2021/09/25 00:44:39;;;;;;;45.35;8.90;;;;;;;13.73;98.25;100052.28;5091664;28;20347;-80
2021/09/25 00:47:05;;;;;;;44.05;8.60;;;;;;;13.78;97.70;100049.69;5092648;28;20024;-78
2021/09/25 00:49:30;;;;;;;38.58;7.13;;;;;;;13.78;97.90;100059.69;5092868;28;20023;-79
2021/09/25 00:51:57;;;;;;;37.10;7.18;;;;;;;13.75;97.86;100047.47;5094486;28;20449;-79
2021/09/25 00:54:22;;;;;;;53.47;9.23;;;;;;;13.77;97.86;100066.16;5075920;28;20032;-79
2021/09/25 00:56:48;;;;;;;53.58;9.35;;;;;;;13.77;98.37;100068.84;5093274;28;20036;-79
2021/09/25 00:59:16;;;;;;;41.55;6.93;;;;;;;13.75;98.41;100073.69;5091902;28;20399;-79
2021/09/25 01:01:43;;;;;;;44.00;7.88;;;;;;;13.76;98.54;100084.25;5083903;28;20104;-78
2021/09/25 01:04:08;;;;;;;46.10;7.85;;;;;;;13.59;98.76;100069.81;5073033;28;20082;-78
2021/09/25 01:06:34;;;;;;;48.25;8.95;;;;;;;13.72;99.02;100098.50;5081645;28;20454;-80
2021/09/25 01:09:02;;;;;;;65.63;10.50;;;;;;;13.70;99.65;100089.78;5087061;28;20078;-79
2021/09/25 01:11:27;;;;;;;58.33;8.27;;;;;;;13.74;99.89;100099.06;5073817;28;20036;-79
2021/09/25 01:13:54;;;;;;;55.13;9.50;;;;;;;13.68;100.00;100100.03;5089160;28;20040;-82
2021/09/25 01:16:21;;;;;;;58.65;9.77;;;;;;;13.65;100.00;100105.91;5093012;28;20020;-79
2021/09/25 01:18:46;;;;;;;64.05;9.35;;;;;;;13.63;100.00;100106.13;5085847;28;20052;-81
2021/09/25 01:21:12;;;;;;;56.97;10.02;;;;;;;13.65;100.00;100112.13;5087510;28;20047;-79
2021/09/25 01:23:38;;;;;;;42.90;7.43;;;;;;;13.65;99.73;100105.91;5080147;28;20102;-80
2021/09/25 01:26:05;;;;;;;45.33;8.30;;;;;;;13.65;99.59;100125.66;5098264;28;20651;-78
2021/09/25 01:28:33;;;;;;;49.38;8.68;;;;;;;13.67;99.21;100109.19;5101506;28;20126;-79
2021/09/25 01:30:59;;;;;;;52.17;9.75;;;;;;;13.70;98.52;100116.81;5084194;28;20048;-79
2021/09/25 01:33:30;;;;;;;47.28;8.52;;;;;;;13.69;98.37;100110.59;5082112;28;20048;-79
2021/09/25 01:35:56;;;;;;;43.90;8.13;;;;;;;13.68;98.02;100117.06;5108759;28;20019;-79
2021/09/25 01:38:21;;;;;;;44.55;7.07;;;;;;;13.66;97.18;100113.78;5103627;28;20039;-78
2021/09/25 01:40:47;;;;;;;48.55;8.80;;;;;;;13.62;96.55;100118.84;5081473;28;20029;-78
2021/09/25 01:43:13;;;;;;;51.05;9.13;;;;;;;13.67;96.23;100120.81;5080526;28;20032;-79
2021/09/25 01:45:38;;;;;;;48.63;7.55;;;;;;;13.63;95.69;100120.47;5080806;28;20080;-79
2021/09/25 01:48:04;;;;;;;39.65;8.05;;;;;;;13.65;94.76;100127.53;5086300;28;20428;-79
2021/09/25 01:50:30;;;;;;;40.97;6.80;;;;;;;13.69;94.95;100132.22;5099682;28;20035;-79
2021/09/25 01:52:55;;;;;;;39.22;7.03;;;;;;;13.69;95.41;100132.22;5101002;28;20051;-79
2021/09/25 01:55:20;;;;;;;26.65;5.70;;;;;;;13.62;94.83;100124.25;5092503;28;20021;-79
2021/09/25 01:57:46;;;;;;;35.70;6.43;;;;;;;13.70;94.68;100143.88;5081054;28;20025;-79
2021/09/25 02:00:12;;;;;;;39.97;7.47;;;;;;;13.73;93.60;100138.00;5085353;28;20124;-80
2021/09/25 02:02:38;;;;;;;30.77;5.72;;;;;;;13.69;92.67;100145.75;5083785;28;20028;-79
2021/09/25 02:05:05;;;;;;;33.90;7.30;;;;;;;13.76;91.87;100141.03;5063363;28;20468;-79
2021/09/25 02:07:30;;;;;;;39.75;7.07;;;;;;;13.78;91.71;100143.53;5096286;28;20036;-80
2021/09/25 02:09:56;;;;;;;42.03;7.68;;;;;;;13.62;92.38;100124.25;5100993;28;20032;-80
2021/09/25 02:12:22;;;;;;;43.65;8.00;;;;;;;13.70;93.03;100144.69;5083847;28;20035;-80
2021/09/25 02:14:47;;;;;;;37.60;6.75;;;;;;;13.71;92.80;100148.19;5086577;28;20024;-79
2021/09/25 02:17:13;;;;;;;33.80;6.80;;;;;;;13.69;91.98;100137.63;5102001;28;20049;-80
2021/09/25 02:19:39;;;;;;;34.28;6.47;;;;;;;13.73;92.73;100151.50;5100756;28;20096;-80
2021/09/25 02:22:04;;;;;;;37.00;6.80;;;;;;;13.71;93.55;100148.19;5081342;28;20478;-80
2021/09/25 02:24:30;;;;;;;39.58;7.03;;;;;;;13.64;92.80;100153.72;5101459;28;20032;-80
2021/09/25 02:26:56;;;;;;;33.95;6.03;;;;;;;13.60;93.24;100147.16;5100433;28;20040;-80
2021/09/25 02:29:22;;;;;;;30.77;6.68;;;;;;;13.59;93.39;100157.16;5098455;28;20024;-79
2021/09/25 02:31:48;;;;;;;36.85;7.43;;;;;;;13.59;93.43;100177.97;5102011;28;20048;-80
2021/09/25 02:34:13;;;;;;;27.70;6.13;;;;;;;13.55;92.95;100161.38;5112401;28;20059;-81
2021/09/25 02:36:38;;;;;;;29.45;5.97;;;;;;;13.59;93.28;100181.47;5069494;28;20032;-81
2021/09/25 02:39:04;;;;;;;28.77;4.95;;;;;;;13.60;94.09;100183.13;5080839;28;20055;-79
2021/09/25 02:41:29;;;;;;;30.83;5.95;;;;;;;13.59;94.14;100195.00;5088013;28;20027;-79
2021/09/25 02:43:55;;;;;;;36.13;5.90;;;;;;;13.60;93.33;100180.41;5114350;28;20042;-78
2021/09/25 02:46:21;;;;;;;37.15;6.32;;;;;;;13.53;94.30;100189.69;5105763;28;20515;-79
2021/09/25 02:48:47;;;;;;;31.13;5.80;;;;;;;13.47;93.86;100164.41;5074613;28;20063;-79
2021/09/25 02:51:14;;;;;;;29.80;5.65;;;;;;;13.53;92.67;100173.47;5076522;28;20028;-79
2021/09/25 02:53:40;;;;;;;26.65;5.43;;;;;;;13.51;92.79;100172.88;5075944;28;20127;-79
2021/09/25 02:56:05;;;;;;;26.23;4.43;;;;;;;13.44;93.20;100164.88;5077601;28;20077;-79
2021/09/25 02:58:31;;;;;;;35.00;5.93;;;;;;;13.53;93.45;100187.81;5092524;28;20036;-78
2021/09/25 03:00:56;;;;;;;34.22;6.38;;;;;;;13.54;92.97;100189.47;5096936;28;20030;-79
2021/09/25 03:03:22;;;;;;;36.17;6.47;;;;;;;13.44;93.94;100197.31;5095232;28;20055;-79
2021/09/25 03:05:47;;;;;;;34.25;5.93;;;;;;;13.46;94.22;100202.50;5094936;28;20064;-80
2021/09/25 03:08:12;;;;;;;34.40;5.80;;;;;;;13.45;94.59;100215.19;5096810;28;20034;-79
2021/09/25 03:10:38;;;;;;;27.58;4.72;;;;;;;13.44;93.50;100194.59;5082970;28;20021;-79
2021/09/25 03:13:03;;;;;;;30.92;5.57;;;;;;;13.46;93.15;100187.09;5092798;28;20036;-79
2021/09/25 03:15:29;;;;;;;28.17;5.13;;;;;;;13.37;92.85;100191.19;5103116;28;20032;-79
2021/09/25 03:17:54;;;;;;;33.42;6.05;;;;;;;13.40;93.05;100196.13;5106439;28;20028;-79
2021/09/25 03:20:20;;;;;;;25.67;4.93;;;;;;;13.37;93.23;100202.00;5102212;28;20054;-80
2021/09/25 03:22:45;;;;;;;29.80;6.07;;;;;;;13.45;92.87;100204.38;5088915;28;20062;-79
2021/09/25 03:25:14;;;;;;;38.60;6.32;;;;;;;13.44;93.30;100216.22;5105303;28;20028;-80
2021/09/25 03:27:39;;;;;;;28.88;5.53;;;;;;;13.35;93.62;100209.53;5105782;28;20024;-79
2021/09/25 03:30:07;;;;;;;24.90;4.53;;;;;;;13.43;92.53;100222.69;5105022;28;20055;-80
2021/09/25 03:32:33;;;;;;;27.80;5.28;;;;;;;13.35;92.92;100244.66;5090242;28;20032;-80
2021/09/25 03:34:58;;;;;;;28.45;5.85;;;;;;;13.38;93.72;100230.69;5091217;28;20025;-82
2021/09/25 03:37:23;;;;;;;36.13;6.75;;;;;;;13.37;93.94;100239.84;5078354;28;20031;-82
2021/09/25 03:39:49;;;;;;;43.20;6.10;;;;;;;13.35;93.18;100226.56;5091665;28;20025;-79
2021/09/25 03:42:14;;;;;;;27.65;5.10;;;;;;;13.28;91.39;100230.44;5081422;28;20408;-79
2021/09/25 03:44:40;;;;;;;25.83;4.70;;;;;;;13.38;89.73;100228.00;5073390;28;20067;-79
2021/09/25 03:47:05;;;;;;;25.58;5.07;;;;;;;13.46;89.59;100243.88;5082349;28;20036;-79
2021/09/25 03:49:31;;;;;;;30.45;5.75;;;;;;;13.44;90.49;100239.75;5085544;28;20344;-79
2021/09/25 03:51:56;;;;;;;31.70;5.30;;;;;;;13.41;91.38;100243.75;5065858;28;20024;-79
2021/09/25 03:54:22;;;;;;;24.45;4.78;;;;;;;13.29;90.10;100222.09;5074139;28;20028;-79
2021/09/25 03:56:47;;;;;;;25.20;4.95;;;;;;;13.34;90.53;100221.38;5101736;28;20032;-80
2021/09/25 03:59:12;;;;;;;25.23;5.13;;;;;;;13.35;90.79;100248.19;5085158;28;20028;-79
2021/09/25 04:01:38;;;;;;;28.65;5.22;;;;;;;13.32;91.71;100254.06;5080479;28;20028;-79
2021/09/25 04:04:03;;;;;;;33.17;5.97;;;;;;;13.28;92.15;100246.66;5099173;28;20097;-80
2021/09/25 04:06:29;;;;;;;36.20;5.60;;;;;;;13.28;93.10;100235.84;5102468;28;20031;-79
2021/09/25 04:08:54;;;;;;;24.08;5.35;;;;;;;13.35;92.46;100245.50;5089323;28;20489;-80
2021/09/25 04:11:20;;;;;;;34.17;5.03;;;;;;;13.35;92.62;100248.19;5080019;28;20025;-80
2021/09/25 04:13:45;;;;;;;21.55;4.10;;;;;;;13.27;91.90;100250.38;5079956;28;20224;-79
2021/09/25 04:16:11;;;;;;;31.27;5.70;;;;;;;13.32;91.67;100259.47;5085015;28;20067;-81
2021/09/25 04:18:36;;;;;;;32.22;4.95;;;;;;;13.26;92.86;100260.38;5085368;28;20379;-82
2021/09/25 04:21:03;;;;;;;31.70;5.32;;;;;;;13.22;93.35;100258.34;5092297;28;20074;-80
2021/09/25 04:23:29;;;;;;;36.97;6.00;;;;;;;13.19;94.19;100265.03;5084390;28;20059;-78
2021/09/25 04:25:54;;;;;;;31.30;4.80;;;;;;;13.19;93.51;100269.59;5078049;28;20033;-78
2021/09/25 04:28:20;;;;;;;23.70;4.18;;;;;;;13.19;93.28;100267.72;5074589;28;20037;-79
2021/09/25 04:30:46;;;;;;;33.65;5.35;;;;;;;13.13;93.10;100258.66;5074485;28;20453;-79
2021/09/25 04:33:11;;;;;;;28.63;4.95;;;;;;;13.11;92.53;100262.63;5086591;28;20051;-79
2021/09/25 04:35:38;;;;;;;26.80;5.00;;;;;;;13.10;91.63;100261.00;5095254;28;20472;-78
2021/09/25 04:38:04;;;;;;;32.30;6.05;;;;;;;13.07;91.49;100272.25;5088717;28;20028;-79
2021/09/25 04:40:31;;;;;;;34.65;5.43;;;;;;;13.07;91.49;100283.88;5074596;28;20057;-79
2021/09/25 04:42:58;;;;;;;26.23;4.95;;;;;;;13.11;91.99;100270.72;5076153;28;20055;-79
2021/09/25 04:45:24;;;;;;;28.27;5.60;;;;;;;13.10;91.84;100278.00;5093804;28;20657;-78
2021/09/25 04:47:50;;;;;;;29.05;5.03;;;;;;;13.04;92.00;100273.53;5094013;28;20111;-78
2021/09/25 04:50:17;;;;;;;26.20;4.10;;;;;;;13.06;91.60;100284.94;5094214;28;20088;-78
2021/09/25 04:52:43;;;;;;;25.52;4.72;;;;;;;12.99;91.15;100273.41;5094564;28;20024;-79
2021/09/25 04:55:10;;;;;;;25.05;5.03;;;;;;;13.21;90.73;100289.09;5094814;28;20036;-79
2021/09/25 04:57:36;;;;;;;31.48;5.05;;;;;;;13.15;91.09;100290.84;5072874;28;20039;-79
2021/09/25 05:00:04;;;;;;;23.08;4.07;;;;;;;13.19;90.41;100285.81;5074092;28;20048;-78
2021/09/25 05:02:29;;;;;;;27.52;4.80;;;;;;;13.21;91.69;100294.50;5079201;28;20056;-79
2021/09/25 05:04:54;;;;;;;28.48;5.13;;;;;;;13.21;92.00;100299.91;5096382;28;20028;-80
2021/09/25 05:07:20;;;;;;;33.30;5.30;;;;;;;13.16;92.54;100319.50;5085133;28;20144;-80
2021/09/25 05:09:45;;;;;;;27.92;5.40;;;;;;;13.17;92.27;100330.06;5098195;28;20094;-79
2021/09/25 05:12:10;;;;;;;30.48;4.43;;;;;;;13.24;92.09;100342.66;5077916;28;20032;-79
2021/09/25 05:14:36;;;;;;;30.05;5.30;;;;;;;13.15;92.00;100337.59;5097566;28;20032;-78
2021/09/25 05:17:02;;;;;;;35.95;5.72;;;;;;;13.16;92.16;100341.94;5098338;28;20057;-80
2021/09/25 05:19:28;;;;;;;29.05;5.28;;;;;;;13.03;92.13;100319.69;5099029;28;20055;-80
2021/09/25 05:21:54;;;;;;;22.88;3.70;;;;;;;13.17;91.40;100348.97;5099809;28;20426;-79
2021/09/25 05:24:20;;;;;;;28.23;4.18;;;;;;;13.15;90.98;100337.59;5101273;28;20034;-81
2021/09/25 05:26:49;;;;;;;23.33;4.25;;;;;;;13.27;90.99;100347.66;5084577;28;20024;-79
2021/09/25 05:29:16;;;;;;;19.83;4.47;;;;;;;13.20;90.62;100317.16;5096492;28;20319;-79
2021/09/25 05:31:42;;;;;;;30.08;4.70;;;;;;;13.23;90.33;100341.84;5101489;28;20109;-79
2021/09/25 05:34:09;;;;;;;25.10;4.65;;;;;;;13.25;90.05;100344.38;5100824;28;20073;-79
2021/09/25 05:36:35;;;;;;;23.35;3.85;;;;;;;13.16;89.51;100333.84;5102550;28;20028;-80
2021/09/25 05:39:00;;;;;;;24.48;4.68;;;;;;;13.20;89.12;100336.09;5104668;28;20066;-81
2021/09/25 05:41:26;;;;;;;21.88;3.75;;;;;;;13.35;88.66;100352.75;5111053;28;20165;-81
2021/09/25 05:43:55;;;;;;;23.00;3.72;;;;;;;13.32;88.30;100358.63;5110024;28;20426;-80
2021/09/25 05:46:20;;;;;;;19.10;3.25;;;;;;;13.39;88.15;100368.28;5099047;28;20024;-79
2021/09/25 05:48:48;;;;;;;26.20;4.03;;;;;;;13.35;88.97;100371.69;5095001;28;20097;-79
2021/09/25 05:51:14;;;;;;;23.80;3.97;;;;;;;13.38;88.89;100376.63;5094618;28;20052;-79
2021/09/25 05:53:39;;;;;;;19.75;3.20;;;;;;;13.48;88.50;100390.41;5095523;28;20057;-78
2021/09/25 05:56:05;;;;;;;25.65;4.80;;;;;;;13.45;89.67;100387.34;5098298;28;20042;-79
2021/09/25 05:58:30;;;;;;;25.73;4.18;;;;;;;13.48;89.27;100389.59;5100896;28;20044;-79
2021/09/25 06:00:55;;;;;;;20.35;4.43;;;;;;;13.54;89.54;100394.91;5100992;28;20028;-78
2021/09/25 06:03:21;;;;;;;26.85;4.05;;;;;;;13.48;89.23;100392.31;5103910;28;20040;-79
2021/09/25 06:05:46;;;;;;;28.50;3.72;;;;;;;13.52;87.89;100391.59;5099522;28;20040;-78
2021/09/25 06:08:12;;;;;;;28.60;4.60;;;;;;;13.55;88.46;100380.34;5094576;28;20036;-77
2021/09/25 06:10:38;;;;;;;27.30;4.63;;;;;;;13.58;89.33;100420.44;5094277;28;20037;-80
2021/09/25 06:13:06;;;;;;;27.77;4.93;;;;;;;13.51;88.76;100398.06;5075794;28;20085;-80
2021/09/25 06:15:31;;;;;;;23.00;4.10;;;;;;;13.61;88.37;100419.16;5091951;28;20449;-78
2021/09/25 06:17:57;;;;;;;26.83;4.95;;;;;;;13.63;88.33;100412.44;5092808;28;20089;-80
2021/09/25 06:20:22;;;;;;;24.52;4.38;;;;;;;13.67;89.17;100417.41;5094062;28;20356;-80
2021/09/25 06:22:48;;;;;;;23.88;5.00;;;;;;;13.64;88.86;100424.09;5088046;28;20028;-79
2021/09/25 06:25:13;;;;;;;33.33;5.40;;;;;;;13.66;88.81;100430.09;5117021;28;20024;-80
2021/09/25 06:27:39;;;;;;;28.35;4.30;;;;;;;13.69;88.46;100426.13;5094904;28;20081;-80
2021/09/25 06:30:07;;;;;;;25.05;4.40;;;;;;;13.69;88.68;100434.22;5091084;28;20063;-80
2021/09/25 06:32:32;;;;;;;23.10;4.00;;;;;;;13.72;88.01;100426.47;5095202;28;20094;-79
2021/09/25 06:34:57;;;;;;;28.67;4.60;;;;;;;13.69;89.26;100420.72;5091817;28;20465;-79
2021/09/25 06:37:23;;;;;;;28.02;5.25;;;;;;;13.75;89.22;100433.31;5096613;28;20024;-80
2021/09/25 06:39:48;;;;;;;22.77;3.40;;;;;;;13.69;89.63;100439.63;5097475;28;20032;-80
2021/09/25 06:42:15;;;;;;;21.27;3.95;;;;;;;13.77;89.68;100450.94;5062666;28;20024;-79
2021/09/25 06:44:40;;;;;;;23.13;4.70;;;;;;;13.77;89.14;100458.22;5094084;28;20449;-79
2021/09/25 06:47:06;;;;;;;21.95;3.88;;;;;;;13.82;88.74;100458.38;5096677;28;20187;-80
2021/09/25 06:49:33;;;;;;;20.95;3.90;;;;;;;13.84;88.74;100461.66;5095105;28;20024;-79
2021/09/25 06:51:58;;;;;;;22.30;4.38;;;;;;;13.83;88.42;100471.66;5095615;28;20442;-80
2021/09/25 06:54:24;;;;;;;20.02;3.78;;;;;;;13.88;88.10;100468.28;5073576;28;20046;-82
2021/09/25 06:56:49;;;;;;;20.45;3.83;;;;;;;13.89;88.16;100471.81;5092367;28;20032;-79
2021/09/25 06:59:14;;;;;;;23.38;3.97;;;;;;;13.86;87.92;100475.78;5104777;28;20028;-78
2021/09/25 07:01:41;;;;;;;17.10;3.13;;;;;;;13.89;87.52;100461.00;5103100;28;20028;-79
2021/09/25 07:04:06;;;;;;;20.80;3.72;;;;;;;13.95;87.66;100476.31;5103665;28;20036;-79
2021/09/25 07:06:34;;;;;;;17.52;3.47;;;;;;;13.96;87.36;100477.97;5102387;28;20032;-80
2021/09/25 07:08:59;;;;;;;25.80;5.05;;;;;;;13.99;87.75;100491.84;5081480;28;20035;-80
2021/09/25 07:11:25;;;;;;;22.38;4.18;;;;;;;13.94;87.66;100485.47;5085566;28;20033;-81
2021/09/25 07:13:50;;;;;;;14.10;2.47;;;;;;;13.96;87.75;100483.38;5070689;28;20103;-81
2021/09/25 07:16:15;;;;;;;17.17;2.95;;;;;;;13.94;86.58;100486.31;5089770;28;20079;-79
2021/09/25 07:18:41;;;;;;;20.30;3.40;;;;;;;13.96;86.87;100486.06;5065058;28;20029;-79
2021/09/25 07:21:06;;;;;;;15.50;3.13;;;;;;;14.02;87.12;100502.22;5090476;28;20055;-80
2021/09/25 07:23:33;;;;;;;22.17;4.63;;;;;;;13.99;87.70;100494.56;5094139;28;20028;-81
2021/09/25 07:25:58;;;;;;;23.67;3.72;;;;;;;14.04;87.66;100505.53;5105732;28;20548;-79
2021/09/25 07:28:24;;;;;;;23.48;3.92;;;;;;;14.03;88.26;100503.84;5101023;28;20028;-80
2021/09/25 07:30:50;;;;;;;22.45;3.72;;;;;;;14.09;88.25;100516.47;5100625;28;20123;-80
2021/09/25 07:33:16;;;;;;;20.63;3.67;;;;;;;14.05;88.36;100528.00;5085306;28;20032;-81
2021/09/25 07:35:42;;;;;;;20.13;3.72;;;;;;;14.07;87.99;100534.81;5088910;28;20031;-81
2021/09/25 07:38:08;;;;;;;18.45;3.95;;;;;;;14.03;87.24;100543.63;5081814;28;20028;-81
2021/09/25 07:40:34;;;;;;;14.02;3.08;;;;;;;14.12;86.59;100542.25;5101831;28;20469;-81
2021/09/25 07:43:00;;;;;;;19.20;3.05;;;;;;;14.10;87.42;100550.59;5099696;28;20032;-80
2021/09/25 07:45:25;;;;;;;20.00;3.03;;;;;;;14.12;87.55;100546.84;5084891;28;20031;-80
2021/09/25 07:47:52;;;;;;;19.58;3.10;;;;;;;14.13;87.33;100546.59;5081362;28;20025;-79
2021/09/25 07:50:17;;;;;;;23.13;4.05;;;;;;;14.15;87.56;100565.31;5094038;28;20081;-80
2021/09/25 07:52:43;;;;;;;17.40;3.22;;;;;;;14.15;87.33;100559.91;5096013;28;20065;-79
2021/09/25 07:55:10;;;;;;;22.20;3.45;;;;;;;14.11;87.86;100559.53;5077211;28;20028;-79
2021/09/25 07:57:36;;;;;;;16.95;3.72;;;;;;;14.16;86.76;100565.09;5099734;28;20024;-79
2021/09/25 08:00:04;;;;;;;17.98;3.95;;;;;;;14.08;86.15;100555.41;5098110;28;20028;-79
2021/09/25 08:02:29;;;;;;;16.10;2.63;;;;;;;14.12;85.22;100576.59;5099029;28;20361;-80
2021/09/25 08:04:55;;;;;;;17.63;3.70;;;;;;;14.15;83.90;100578.84;5088381;28;20028;-79
2021/09/25 08:07:20;;;;;;;19.10;3.42;;;;;;;14.17;83.63;100591.09;5081947;28;20037;-80
2021/09/25 08:09:45;;;;;;;16.92;2.75;;;;;;;14.20;84.99;100608.75;5109889;28;20039;-80
2021/09/25 08:12:11;;;;;;;22.05;3.45;;;;;;;14.21;85.26;100602.31;5107606;28;20032;-80
2021/09/25 08:14:36;;;;;;;17.83;3.45;;;;;;;14.23;85.23;100611.00;5100617;28;20040;-79
2021/09/25 08:17:02;;;;;;;17.75;3.00;;;;;;;14.17;85.65;100601.94;5093974;28;20028;-80
2021/09/25 08:19:27;;;;;;;19.85;3.33;;;;;;;14.18;85.10;100635.22;5076707;28;20114;-80
2021/09/25 08:21:53;;;;;;;13.23;2.70;;;;;;;14.13;83.53;100625.06;5081928;28;20020;-80
2021/09/25 08:24:18;;;;;;;17.52;3.55;;;;;;;14.07;83.04;100623.25;5079427;28;20063;-80
2021/09/25 08:26:44;;;;;;;13.93;3.42;;;;;;;14.09;83.04;100616.56;5062334;28;20029;-79
2021/09/25 08:29:09;;;;;;;12.77;3.30;;;;;;;14.08;82.80;100619.53;5077871;28;20135;-79
2021/09/25 08:31:34;;;;;;;15.23;2.90;;;;;;;14.03;82.46;100613.94;5079838;28;20056;-79
2021/09/25 08:34:00;;;;;;;10.75;2.40;;;;;;;14.08;82.37;100631.16;5081239;28;20074;-80
2021/09/25 08:36:27;;;;;;;12.73;3.05;;;;;;;14.12;83.12;100628.00;5091690;28;20043;-79
2021/09/25 08:38:52;;;;;;;17.17;3.13;;;;;;;14.08;84.09;100617.63;5081097;28;20182;-79
2021/09/25 08:41:18;;;;;;;11.07;2.35;;;;;;;14.08;84.22;100638.47;5092502;28;20069;-80
2021/09/25 08:43:43;;;;;;;19.67;2.90;;;;;;;14.10;84.12;100642.59;5097056;28;20032;-80
2021/09/25 08:46:09;;;;;;;17.17;3.08;;;;;;;14.14;84.51;100650.25;5097756;28;20024;-80
2021/09/25 08:48:37;;;;;;;14.05;2.53;;;;;;;14.14;83.68;100655.66;5093042;28;20055;-80
2021/09/25 08:51:03;;;;;;;15.88;3.05;;;;;;;14.09;84.00;100650.94;5097702;28;20035;-79
2021/09/25 08:53:28;;;;;;;13.85;2.58;;;;;;;14.04;84.23;100651.63;5095325;28;20092;-80
2021/09/25 08:55:53;;;;;;;14.45;2.50;;;;;;;14.08;83.37;100652.81;5096484;28;20036;-81
2021/09/25 08:58:19;;;;;;;11.65;2.70;;;;;;;14.07;82.87;100659.28;5095658;28;20464;-82
2021/09/25 09:00:47;;;;;;;15.02;2.78;;;;;;;14.08;81.21;100660.94;5114211;28;20024;-80
2021/09/25 09:03:36;;;;;;;12.98;2.72;;;;;;;14.08;81.89;100674.47;5117179;28;20058;-79
2021/09/25 09:06:14;;;;;;;12.23;2.40;;;;;;;14.13;82.39;100675.66;5088817;28;20028;-80
2021/09/25 09:08:42;;;;;;;11.32;2.13;;;;;;;14.11;82.33;100675.91;5085923;28;20151;-81
2021/09/25 09:11:08;;;;;;;12.50;2.50;;;;;;;14.10;81.94;100677.78;5077766;28;20032;-80
2021/09/25 09:13:36;;;;;;;12.98;2.90;;;;;;;14.14;82.73;100685.41;5097831;28;20537;-79
2021/09/25 09:16:03;;;;;;;14.23;2.80;;;;;;;14.14;83.05;100697.09;5098859;28;20400;-80
2021/09/25 09:18:31;;;;;;;20.75;3.05;;;;;;;14.08;83.55;100679.88;5097987;28;20028;-80
2021/09/25 09:21:07;;;;;;;14.10;2.38;;;;;;;14.06;81.10;100697.38;5085251;28;20024;-80
2021/09/25 09:23:34;;;;;;;10.52;2.53;;;;;;;14.14;80.79;100707.06;5088812;28;20028;-79
2021/09/25 09:26:00;;;;;;;13.13;2.50;;;;;;;14.11;80.63;100711.06;5092253;28;20036;-79
2021/09/25 09:28:29;;;;;;;13.77;2.55;;;;;;;14.14;80.28;100702.50;5084890;28;20035;-80
2021/09/25 09:30:57;;;;;;;11.45;2.33;;;;;;;14.25;81.35;100715.28;5078981;28;20056;-80
2021/09/25 09:33:39;;;;;;;9.55;1.98;;;;;;;14.23;80.72;100709.25;5094238;28;20035;-80
2021/09/25 09:36:32;;;;;;;12.73;2.78;;;;;;;14.23;82.32;100709.25;5099774;28;20023;-81
2021/09/25 09:39:08;;;;;;;12.05;2.38;;;;;;;14.21;81.10;100702.44;5094248;28;20031;-80
2021/09/25 09:41:37;;;;;;;17.13;2.17;;;;;;;14.25;82.10;100711.75;5077638;28;20040;-80
2021/09/25 09:44:09;;;;;;;11.63;2.50;;;;;;;14.25;82.12;100703.63;5078741;28;20032;-80
2021/09/25 09:46:39;;;;;;;11.40;1.80;;;;;;;14.24;81.95;100718.22;5078204;28;20067;-80
2021/09/25 09:49:06;;;;;;;11.63;1.95;;;;;;;14.26;81.10;100726.91;5081904;28;20024;-81
2021/09/25 09:51:56;;;;;;;10.50;2.10;;;;;;;14.31;80.38;100722.50;5099244;28;20085;-80
2021/09/25 09:54:30;;;;;;;13.27;2.10;;;;;;;14.31;79.49;100727.09;5092647;28;20044;-79
2021/09/25 09:57:17;;;;;;;11.33;1.70;;;;;;;14.33;79.78;100733.09;5096643;28;20051;-80
2021/09/25 09:59:44;;;;;;;9.32;1.80;;;;;;;14.45;79.78;100739.41;5096035;28;20756;-80
2021/09/25 10:02:09;;;;;;;13.23;2.00;;;;;;;14.51;79.42;100743.13;5097509;28;20108;-80
2021/09/25 10:04:37;;;;;;;8.70;1.67;;;;;;;14.46;78.54;100741.06;5097702;28;20466;-79
2021/09/25 10:07:02;;;;;;;10.82;1.52;;;;;;;14.43;78.58;100740.69;5099975;28;20121;-80
2021/09/25 10:09:30;;;;;;;8.70;1.92;;;;;;;14.48;77.47;100751.66;5102912;28;20129;-80
2021/09/25 10:11:59;;;;;;;7.63;1.80;;;;;;;14.44;77.17;100761.31;5097185;28;20028;-80
2021/09/25 10:14:30;;;;;;;8.57;1.60;;;;;;;14.42;77.49;100755.28;5096468;28;20024;-81
2021/09/25 10:16:59;;;;;;;8.07;1.70;;;;;;;14.43;79.34;100765.88;5103776;28;20116;-80
2021/09/25 10:19:30;;;;;;;13.48;2.22;;;;;;;14.39;78.85;100782.78;5104442;28;20012;-80
2021/09/25 10:22:08;;;;;;;9.68;2.00;;;;;;;14.37;78.56;100779.47;5118109;28;20036;-80
2021/09/25 10:24:36;;;;;;;9.93;1.80;;;;;;;14.43;78.08;100784.81;5116964;28;20030;-81
2021/09/25 10:27:05;;;;;;;12.63;2.03;;;;;;;14.46;78.67;100784.38;5111947;28;20048;-82
2021/09/25 10:29:31;;;;;;;10.43;1.70;;;;;;;14.42;78.38;100775.06;5106359;28;20058;-79
2021/09/25 10:32:18;;;;;;;9.18;2.10;;;;;;;14.43;77.63;100795.66;5089569;28;20044;-80
2021/09/25 10:35:06;;;;;;;9.70;1.67;;;;;;;14.39;77.27;100783.63;5086161;28;20036;-81
2021/09/25 10:37:40;;;;;;;11.85;1.88;;;;;;;14.40;76.79;100798.81;5093889;28;20060;-80
2021/09/25 10:40:11;;;;;;;10.55;1.75;;;;;;;14.42;79.27;100804.81;5097132;28;20016;-81
2021/09/25 10:42:47;;;;;;;9.13;1.90;;;;;;;14.37;78.67;100804.69;5092330;28;20035;-81
2021/09/25 10:45:25;;;;;;;10.93;2.47;;;;;;;14.35;78.12;100804.06;5096889;28;20024;-79
2021/09/25 10:48:23;;;;;;;6.97;1.75;;;;;;;14.42;77.59;100807.53;5090940;28;20093;-80
2021/09/25 10:50:58;;;;;;;8.63;1.50;;;;;;;14.48;76.18;100801.22;5092692;28;20130;-80
2021/09/25 10:53:23;;;;;;;13.75;1.60;;;;;;;14.47;76.08;100814.97;5084523;28;20023;-81
2021/09/25 10:55:59;;;;;;;6.90;1.38;;;;;;;14.41;76.01;100814.00;5113618;28;20023;-82
2021/09/25 10:58:25;;;;;;;10.38;1.95;;;;;;;14.46;76.90;100818.75;5116393;28;20032;-83
2021/09/25 11:01:05;;;;;;;12.80;1.85;;;;;;;14.48;78.66;100831.00;5115239;28;20139;-85
2021/09/25 11:06:22;;;;;;;11.30;2.08;;;;;;;14.50;77.52;100831.66;5138134;22;20041;-86
2021/09/25 11:09:28;;;;;;;9.73;1.67;;;;;;;13.66;77.45;100703.19;5040016;28;20073;-85
2021/09/25 11:14:40;;;;;;;7.75;1.67;;;;;;;13.63;77.59;100709.03;5691660;22;20045;-85
2021/09/25 11:17:14;;;;;;;7.57;1.33;;;;;;;14.50;77.55;100844.31;5112969;23;20046;-87
2021/09/25 11:19:44;;;;;;;9.65;1.75;;;;;;;13.77;78.29;100734.88;4987706;28;20015;-85
2021/09/25 11:22:17;;;;;;;10.07;1.30;;;;;;;14.54;77.35;100840.16;4989556;28;20031;-87